Time;durP1;ratioP1;P1;durP2;ratioP2;P2;SDS_P1;SDS_P2;PMS_P1;PMS_P2;Temp;Humidity;BMP_temperature;BMP_pressure;BME280_temperature;BME280_humidity;BME280_pressure;Samples;Min_cycle;Max_cycle;Signal;HPM_P1;HPM_P2
2024/04/25 00:01:56;;;;;;;32.40;16.30;;;;;;;6.80;75.13;99221.19;669621;1263;138872;-79
2024/04/25 00:16:59;;;;;;;41.00;17.60;;;;;;;6.75;75.27;99226.69;670558;1275;139142;-80
2024/04/25 00:32:02;;;;;;;55.20;23.50;;;;;;;6.63;75.50;99225.27;670491;1260;140215;-79
2024/04/25 00:47:06;;;;;;;35.90;18.60;;;;;;;6.55;76.61;99222.91;668472;1264;139077;-79
2024/04/25 01:02:10;;;;;;;41.10;18.80;;;;;;;6.61;77.68;99215.91;668234;1264;138576;-80
2024/04/25 01:17:13;;;;;;;34.60;15.00;;;;;;;6.59;78.09;99215.91;670108;1259;138874;-80
2024/04/25 01:32:19;;;;;;;35.10;16.50;;;;;;;6.52;78.96;99210.02;669214;1278;138851;-79
2024/04/25 01:47:23;;;;;;;33.50;13.10;;;;;;;6.56;79.18;99208.59;668500;1265;139074;-80
2024/04/25 02:02:26;;;;;;;29.40;17.50;;;;;;;6.65;79.32;99217.87;670446;1260;139879;-80
2024/04/25 02:17:29;;;;;;;26.80;13.30;;;;;;;6.54;78.85;99217.59;672217;1263;139745;-79
2024/04/25 02:32:33;;;;;;;30.20;14.10;;;;;;;6.30;80.07;99226.08;669937;1264;139553;-79
2024/04/25 02:47:37;;;;;;;30.20;16.60;;;;;;;6.37;80.46;99227.09;668726;1264;139098;-79
2024/04/25 03:02:41;;;;;;;40.00;18.60;;;;;;;6.49;80.00;99228.33;671296;1264;138907;-80
2024/04/25 03:17:45;;;;;;;27.30;14.10;;;;;;;6.46;80.00;99235.48;670126;1263;139163;-79
2024/04/25 03:32:48;;;;;;;34.50;17.40;;;;;;;6.42;79.61;99231.84;670271;1264;140259;-82
2024/04/25 03:47:53;;;;;;;41.40;19.10;;;;;;;6.44;80.30;99237.92;673442;1263;139355;-79
2024/04/25 04:02:57;;;;;;;41.80;18.30;;;;;;;6.50;80.07;99245.20;675118;1267;138600;-82
2024/04/25 04:18:00;;;;;;;32.30;16.40;;;;;;;6.56;80.63;99253.77;672318;1260;139348;-79
2024/04/25 04:33:04;;;;;;;34.80;17.30;;;;;;;6.58;80.92;99261.06;673783;1264;139064;-81
2024/04/25 04:48:07;;;;;;;37.10;19.30;;;;;;;6.65;80.64;99283.00;669170;1260;138583;-82
2024/04/25 05:03:21;;;;;;;39.00;17.80;;;;;;;6.81;81.17;99290.48;668631;1263;138692;-79
2024/04/25 05:18:24;;;;;;;38.10;15.10;;;;;;;6.96;80.87;99300.13;668586;1265;138677;-79
2024/04/25 05:33:28;;;;;;;35.30;18.60;;;;;;;7.11;80.85;99306.83;668709;1268;138775;-79
2024/04/25 05:48:32;;;;;;;41.70;20.30;;;;;;;7.25;80.43;99322.28;669013;1266;140115;-78
2024/04/25 06:03:36;;;;;;;31.90;16.50;;;;;;;7.24;80.63;99324.41;668425;1265;138692;-80
2024/04/25 06:18:42;;;;;;;30.70;14.50;;;;;;;7.81;78.87;99335.23;669979;1260;139731;-79
2024/04/25 06:33:45;;;;;;;27.90;16.30;;;;;;;8.76;77.87;99337.99;667888;1264;140535;-79
2024/04/25 06:48:48;;;;;;;26.70;14.30;;;;;;;10.06;75.18;99342.25;669978;1264;139415;-80
2024/04/25 07:03:54;;;;;;;24.20;14.50;;;;;;;13.71;70.96;99364.65;668009;1266;139424;-79
2024/04/25 07:18:58;;;;;;;31.30;16.50;;;;;;;13.90;65.12;99373.71;669730;1276;139295;-80
2024/04/25 07:34:02;;;;;;;25.40;15.40;;;;;;;13.43;62.96;99377.64;667809;1264;138997;-80
2024/04/25 07:49:07;;;;;;;19.50;12.30;;;;;;;14.65;62.31;99391.10;669059;1265;140056;-79
2024/04/25 08:04:13;;;;;;;19.80;12.00;;;;;;;16.48;58.13;99400.63;668213;1266;138964;-79
2024/04/25 08:19:17;;;;;;;14.80;10.70;;;;;;;17.10;53.90;99397.69;667880;1265;139042;-80
2024/04/25 08:34:20;;;;;;;37.30;18.40;;;;;;;17.06;51.44;99398.39;667507;1265;138658;-79
2024/04/25 08:49:25;;;;;;;19.50;11.80;;;;;;;16.89;50.18;99401.95;668001;1265;139386;-80
2024/04/25 09:04:29;;;;;;;30.60;15.50;;;;;;;17.72;48.70;99395.55;666658;1266;246392;-81
2024/04/25 09:19:33;;;;;;;16.50;11.20;;;;;;;16.05;49.53;99395.98;666969;1266;138844;-80
2024/04/25 09:34:36;;;;;;;13.20;9.20;;;;;;;16.61;50.64;99392.94;665727;1266;138766;-79
2024/04/25 09:49:51;;;;;;;10.70;7.70;;;;;;;16.79;48.07;99387.52;669593;1268;138913;-78
2024/04/25 10:04:59;;;;;;;9.50;8.40;;;;;;;15.44;47.44;99384.39;666211;1265;138407;-79
2024/04/25 10:20:03;;;;;;;13.10;9.30;;;;;;;15.89;47.29;99380.64;667410;1270;138353;-79
2024/04/25 10:35:07;;;;;;;23.40;16.60;;;;;;;16.75;47.97;99373.45;670309;1265;138105;-79
2024/04/25 10:50:11;;;;;;;33.00;18.10;;;;;;;19.45;46.59;99359.54;673743;1265;139237;-80
2024/04/25 11:05:15;;;;;;;23.60;14.30;;;;;;;19.60;42.89;99354.77;667773;1266;138984;-78
2024/04/25 11:20:19;;;;;;;31.00;21.70;;;;;;;19.03;41.41;99352.06;666889;1279;140194;-80
2024/04/25 11:35:27;;;;;;;10.30;9.20;;;;;;;18.58;39.80;99353.73;667279;1260;138724;-79
2024/04/25 11:50:30;;;;;;;12.30;9.10;;;;;;;17.86;40.01;99358.83;674957;1265;137964;-80
2024/04/25 12:05:34;;;;;;;16.10;10.00;;;;;;;17.28;41.38;99346.37;677218;1260;138832;-79
2024/04/25 12:20:37;;;;;;;14.80;10.30;;;;;;;15.47;43.56;99349.49;671778;1274;138772;-81
2024/04/25 12:35:40;;;;;;;14.40;10.90;;;;;;;15.82;43.51;99346.86;669481;1267;139228;-79
2024/04/25 12:50:44;;;;;;;18.70;9.40;;;;;;;16.24;43.85;99343.16;669120;1265;138753;-79
2024/04/25 13:05:48;;;;;;;14.60;8.50;;;;;;;16.22;44.74;99343.56;667376;1267;138544;-79
2024/04/25 13:20:52;;;;;;;14.60;8.00;;;;;;;15.07;45.92;99351.77;666733;1276;138526;-79
2024/04/25 13:35:57;;;;;;;18.30;11.50;;;;;;;13.60;50.95;99403.86;669785;1265;138483;-77
2024/04/25 13:51:00;;;;;;;16.60;11.50;;;;;;;12.70;57.26;99426.50;668740;1262;139171;-80
2024/04/25 14:06:06;;;;;;;93.70;51.80;;;;;;;12.44;59.61;99422.33;667547;1274;139018;-80
2024/04/25 14:21:09;;;;;;;153.10;61.80;;;;;;;13.76;60.00;99409.77;669681;1265;138783;-80
2024/04/25 14:36:16;;;;;;;77.20;33.90;;;;;;;15.11;57.14;99412.58;667824;1266;140361;-79
2024/04/25 14:51:19;;;;;;;13.90;10.30;;;;;;;15.13;55.44;99428.31;669693;1260;138918;-79
2024/04/25 15:06:22;;;;;;;23.70;14.70;;;;;;;13.89;56.21;99425.30;670652;1265;140987;-80
2024/04/25 15:21:28;;;;;;;29.00;14.90;;;;;;;13.51;56.13;99419.46;672952;1268;139766;-79
2024/04/25 15:36:31;;;;;;;10.00;7.60;;;;;;;13.26;56.13;99416.63;674784;1267;138831;-79
2024/04/25 15:51:34;;;;;;;15.00;10.70;;;;;;;12.93;56.39;99401.34;674645;1260;138647;-80
2024/04/25 16:06:38;;;;;;;18.20;11.20;;;;;;;12.55;57.63;99393.27;674761;1261;139275;-80
2024/04/25 16:21:43;;;;;;;95.30;60.60;;;;;;;12.87;57.43;99406.63;674741;1261;139092;-80
2024/04/25 16:36:49;;;;;;;31.80;18.30;;;;;;;12.37;57.27;99413.14;677041;1264;138550;-79
2024/04/25 16:51:53;;;;;;;14.20;10.00;;;;;;;12.10;57.61;99423.02;680050;1263;138749;-79
2024/04/25 17:06:57;;;;;;;14.80;10.50;;;;;;;11.45;57.94;99426.53;677296;1265;139117;-80
2024/04/25 17:22:02;;;;;;;271.10;115.10;;;;;;;11.02;58.47;99437.64;676642;1264;139843;-79
2024/04/25 17:37:06;;;;;;;52.10;26.10;;;;;;;10.70;58.92;99444.62;679080;1259;139366;-81
2024/04/25 17:52:09;;;;;;;123.00;65.80;;;;;;;10.35;59.93;99467.28;678225;1265;138494;-80
2024/04/25 18:07:18;;;;;;;19.80;11.90;;;;;;;10.23;61.99;99495.23;675647;1263;138838;-80
2024/04/25 18:22:24;;;;;;;30.60;11.20;;;;;;;10.11;65.31;99583.96;676297;1264;140244;-79
2024/04/25 18:37:28;;;;;;;30.10;21.10;;;;;;;8.66;73.62;99608.66;678461;1260;140013;-80
2024/04/25 18:52:31;;;;;;;36.30;18.50;;;;;;;8.66;74.09;99577.27;679195;1265;139373;-79
2024/04/25 19:07:34;;;;;;;35.40;18.70;;;;;;;8.46;73.93;99564.43;675689;1262;139661;-80
2024/04/25 19:22:37;;;;;;;56.10;24.30;;;;;;;8.33;73.93;99568.35;673213;1264;138782;-79
2024/04/25 19:37:40;;;;;;;37.60;19.20;;;;;;;7.67;74.22;99576.18;672496;1262;138758;-79
2024/04/25 19:52:44;;;;;;;43.10;16.00;;;;;;;7.46;75.58;99575.27;671053;1262;138859;-80
2024/04/25 20:07:48;;;;;;;31.20;16.90;;;;;;;7.41;77.25;99595.64;672318;1273;139647;-79
2024/04/25 20:22:52;;;;;;;22.80;11.80;;;;;;;7.46;78.38;99580.27;672427;1262;138658;-79
2024/04/25 20:37:55;;;;;;;20.30;12.00;;;;;;;7.63;78.44;99595.00;671605;1260;140531;-79
2024/04/25 20:53:00;;;;;;;31.00;18.40;;;;;;;7.59;77.93;99596.03;673604;1273;138968;-79
2024/04/25 21:08:03;;;;;;;249.40;81.20;;;;;;;7.27;77.44;99584.19;672917;1259;153454;-81
2024/04/25 21:23:06;;;;;;;81.00;37.00;;;;;;;6.56;77.61;99582.07;675201;1275;139536;-80
2024/04/25 21:38:09;;;;;;;39.40;17.40;;;;;;;6.34;78.52;99578.65;671959;1259;140119;-80
2024/04/25 21:53:13;;;;;;;131.90;45.20;;;;;;;6.38;78.46;99585.61;676476;1264;140027;-78
2024/04/25 22:08:16;;;;;;;75.70;30.30;;;;;;;6.14;78.43;99587.36;676606;1262;139142;-80
2024/04/25 22:23:20;;;;;;;89.40;36.40;;;;;;;6.07;79.05;99586.02;675884;1262;139194;-80
2024/04/25 22:38:23;;;;;;;98.20;32.10;;;;;;;5.92;78.64;99595.16;674566;1264;139823;-79
2024/04/25 22:53:27;;;;;;;31.10;14.20;;;;;;;5.72;79.87;99598.33;672940;1262;139227;-80
2024/04/25 23:08:32;;;;;;;34.20;17.00;;;;;;;5.89;81.62;99600.80;674632;1260;139707;-80
2024/04/25 23:23:35;;;;;;;22.50;10.70;;;;;;;6.06;82.41;99604.38;673383;1264;140341;-80
2024/04/25 23:38:38;;;;;;;19.80;11.20;;;;;;;6.15;81.93;99611.11;674311;1262;139136;-80
2024/04/25 23:53:45;;;;;;;19.40;11.40;;;;;;;6.01;83.05;99614.94;672894;1266;139895;-80
